Aviation Digital Data Service (ADDS)

Output produced by METARs form (0830 UTC 19 April 2019)
found at http://www.aviationweather.gov/metar/data/
 
Forecast for: DNJO (JOS , NG)
Text: TAF DNJO 190330Z 1906/2012 00000KT 3500 HZ NSC
Forecast period: 0600 UTC 19 April 2019 to 1200 UTC 20 April 2019
Forecast type: FROM: standard forecast or significant change
Winds: calm
Visibility: 2.17 miles (3.49 km)
Ceiling: unknown
Clouds: missing
Weather: HZ  (haze)
Text: BECMG 1906/1908 07010KT
Forecast period: 0600 to 0900 UTC 19 April 2019
Forecast type: BECOMING: Conditions expected to become as follows by 0800 UTC 19 April 2019
Winds: from the ENE (70 degrees) at 12 MPH (10 knots; 5.1 m/s)
Visibility: 2.17 miles (3.49 km)
Ceiling: unknown
Clouds: missing
Weather: HZ  (haze)
Text: BECMG 1909/1911 20008KT 7000 NSW
Forecast period: 0900 UTC 19 April 2019 to 1200 UTC 20 April 2019
Forecast type: BECOMING: Conditions expected to become as follows by 1100 UTC 19 April 2019
Winds: from the SSW (200 degrees) at 9 MPH (8 knots; 4.1 m/s)
Visibility: 4 miles (7 km)
Ceiling: unknown
Clouds: missing
Weather: NSW  (no significant weather)